sensor_id;sensor_type;location;lat;lon;timestamp;temperature;humidity
71754;DHT22;59593;51.716;7.016;2023-12-20T00:00:55;8.10;99.90
71754;DHT22;59593;51.716;7.016;2023-12-20T00:03:20;8.20;99.90
71754;DHT22;59593;51.716;7.016;2023-12-20T00:05:46;8.10;99.90
71754;DHT22;59593;51.716;7.016;2023-12-20T00:08:12;8.10;99.90
71754;DHT22;59593;51.716;7.016;2023-12-20T00:10:38;8.10;99.90
71754;DHT22;59593;51.716;7.016;2023-12-20T00:13:03;8.00;99.90
71754;DHT22;59593;51.716;7.016;2023-12-20T00:15:29;8.00;99.90
71754;DHT22;59593;51.716;7.016;2023-12-20T00:17:54;8.10;99.90
71754;DHT22;59593;51.716;7.016;2023-12-20T00:20:20;8.00;99.90
71754;DHT22;59593;51.716;7.016;2023-12-20T00:22:46;8.00;99.90
71754;DHT22;59593;51.716;7.016;2023-12-20T00:25:11;8.10;99.90
71754;DHT22;59593;51.716;7.016;2023-12-20T00:27:37;8.10;99.90
71754;DHT22;59593;51.716;7.016;2023-12-20T00:30:03;8.00;99.90
71754;DHT22;59593;51.716;7.016;2023-12-20T00:32:28;8.00;99.90
71754;DHT22;59593;51.716;7.016;2023-12-20T00:34:54;7.90;99.90
71754;DHT22;59593;51.716;7.016;2023-12-20T00:37:19;7.80;99.90
71754;DHT22;59593;51.716;7.016;2023-12-20T00:39:45;7.80;99.90
71754;DHT22;59593;51.716;7.016;2023-12-20T00:42:11;7.70;99.90
71754;DHT22;59593;51.716;7.016;2023-12-20T00:44:36;7.70;99.90
71754;DHT22;59593;51.716;7.016;2023-12-20T00:47:02;7.80;99.90
71754;DHT22;59593;51.716;7.016;2023-12-20T00:49:27;7.70;99.90
71754;DHT22;59593;51.716;7.016;2023-12-20T00:51:53;7.70;99.90
71754;DHT22;59593;51.716;7.016;2023-12-20T00:54:18;7.60;99.90
71754;DHT22;59593;51.716;7.016;2023-12-20T00:56:44;7.50;99.90
71754;DHT22;59593;51.716;7.016;2023-12-20T00:59:09;7.50;99.90
71754;DHT22;59593;51.716;7.016;2023-12-20T01:01:36;7.50;99.90
71754;DHT22;59593;51.716;7.016;2023-12-20T01:04:03;7.50;99.90
71754;DHT22;59593;51.716;7.016;2023-12-20T01:06:29;7.40;99.90
71754;DHT22;59593;51.716;7.016;2023-12-20T01:08:54;7.50;99.90
71754;DHT22;59593;51.716;7.016;2023-12-20T01:11:20;7.40;99.90
71754;DHT22;59593;51.716;7.016;2023-12-20T01:13:46;7.40;99.90
71754;DHT22;59593;51.716;7.016;2023-12-20T01:16:11;7.40;99.90
71754;DHT22;59593;51.716;7.016;2023-12-20T01:18:37;7.40;99.90
71754;DHT22;59593;51.716;7.016;2023-12-20T01:21:04;7.40;99.90
71754;DHT22;59593;51.716;7.016;2023-12-20T01:23:31;7.30;99.90
71754;DHT22;59593;51.716;7.016;2023-12-20T01:25:57;7.20;99.90
71754;DHT22;59593;51.716;7.016;2023-12-20T01:28:25;7.20;99.90
71754;DHT22;59593;51.716;7.016;2023-12-20T01:30:50;7.20;99.90
71754;DHT22;59593;51.716;7.016;2023-12-20T01:33:16;7.20;99.90
71754;DHT22;59593;51.716;7.016;2023-12-20T01:35:42;7.20;99.90
71754;DHT22;59593;51.716;7.016;2023-12-20T01:38:08;7.20;99.90
71754;DHT22;59593;51.716;7.016;2023-12-20T01:40:34;7.20;99.90
71754;DHT22;59593;51.716;7.016;2023-12-20T01:43:08;7.20;99.90
71754;DHT22;59593;51.716;7.016;2023-12-20T01:45:34;7.20;99.90
71754;DHT22;59593;51.716;7.016;2023-12-20T01:48:00;7.20;99.90
71754;DHT22;59593;51.716;7.016;2023-12-20T01:50:28;7.20;99.90
71754;DHT22;59593;51.716;7.016;2023-12-20T01:52:55;7.20;99.90
71754;DHT22;59593;51.716;7.016;2023-12-20T01:55:23;7.20;99.90
71754;DHT22;59593;51.716;7.016;2023-12-20T01:57:49;7.10;99.90
71754;DHT22;59593;51.716;7.016;2023-12-20T02:00:16;7.20;99.90
71754;DHT22;59593;51.716;7.016;2023-12-20T02:02:43;7.20;99.90
71754;DHT22;59593;51.716;7.016;2023-12-20T02:05:09;7.20;99.90
71754;DHT22;59593;51.716;7.016;2023-12-20T02:07:37;7.20;99.90
71754;DHT22;59593;51.716;7.016;2023-12-20T02:10:03;7.10;99.90
71754;DHT22;59593;51.716;7.016;2023-12-20T02:12:32;7.00;99.90
71754;DHT22;59593;51.716;7.016;2023-12-20T02:14:57;7.00;99.90
71754;DHT22;59593;51.716;7.016;2023-12-20T02:17:23;7.00;99.90
71754;DHT22;59593;51.716;7.016;2023-12-20T02:19:49;6.90;99.90
71754;DHT22;59593;51.716;7.016;2023-12-20T02:22:15;6.90;99.90
71754;DHT22;59593;51.716;7.016;2023-12-20T02:24:41;6.90;99.90
71754;DHT22;59593;51.716;7.016;2023-12-20T02:27:07;6.80;99.90
71754;DHT22;59593;51.716;7.016;2023-12-20T02:29:34;6.80;99.90
71754;DHT22;59593;51.716;7.016;2023-12-20T02:32:00;6.90;99.90
71754;DHT22;59593;51.716;7.016;2023-12-20T02:34:25;6.80;99.90
71754;DHT22;59593;51.716;7.016;2023-12-20T02:36:51;6.80;99.90
71754;DHT22;59593;51.716;7.016;2023-12-20T02:39:17;6.70;99.90
71754;DHT22;59593;51.716;7.016;2023-12-20T02:41:43;6.80;99.90
71754;DHT22;59593;51.716;7.016;2023-12-20T02:44:09;6.60;99.90
71754;DHT22;59593;51.716;7.016;2023-12-20T02:46:35;6.70;99.90
71754;DHT22;59593;51.716;7.016;2023-12-20T02:49:00;6.60;99.90
71754;DHT22;59593;51.716;7.016;2023-12-20T02:51:26;6.60;99.90
71754;DHT22;59593;51.716;7.016;2023-12-20T02:53:51;6.70;99.90
71754;DHT22;59593;51.716;7.016;2023-12-20T02:56:17;6.60;99.90
71754;DHT22;59593;51.716;7.016;2023-12-20T02:58:42;6.60;99.90
71754;DHT22;59593;51.716;7.016;2023-12-20T03:01:08;6.60;99.90
71754;DHT22;59593;51.716;7.016;2023-12-20T03:03:34;6.60;99.90
71754;DHT22;59593;51.716;7.016;2023-12-20T03:06:00;6.60;99.90
71754;DHT22;59593;51.716;7.016;2023-12-20T03:08:25;6.60;99.90
71754;DHT22;59593;51.716;7.016;2023-12-20T03:10:51;6.50;99.90
71754;DHT22;59593;51.716;7.016;2023-12-20T03:13:16;6.60;99.90
71754;DHT22;59593;51.716;7.016;2023-12-20T03:15:42;6.60;99.90
71754;DHT22;59593;51.716;7.016;2023-12-20T03:18:08;6.60;99.90
71754;DHT22;59593;51.716;7.016;2023-12-20T03:20:33;6.50;99.90
71754;DHT22;59593;51.716;7.016;2023-12-20T03:23:02;6.50;99.90
71754;DHT22;59593;51.716;7.016;2023-12-20T03:25:28;6.50;99.90
71754;DHT22;59593;51.716;7.016;2023-12-20T03:27:53;6.50;99.90
71754;DHT22;59593;51.716;7.016;2023-12-20T03:30:19;6.50;99.90
71754;DHT22;59593;51.716;7.016;2023-12-20T03:32:45;6.50;99.90
71754;DHT22;59593;51.716;7.016;2023-12-20T03:35:11;6.50;99.90
71754;DHT22;59593;51.716;7.016;2023-12-20T03:37:36;6.50;99.90
71754;DHT22;59593;51.716;7.016;2023-12-20T03:40:03;6.50;99.90
71754;DHT22;59593;51.716;7.016;2023-12-20T03:42:28;6.50;99.90
71754;DHT22;59593;51.716;7.016;2023-12-20T03:44:54;6.40;99.90
71754;DHT22;59593;51.716;7.016;2023-12-20T03:47:20;6.40;99.90
71754;DHT22;59593;51.716;7.016;2023-12-20T03:49:45;6.40;99.90
71754;DHT22;59593;51.716;7.016;2023-12-20T03:52:11;6.40;99.90
71754;DHT22;59593;51.716;7.016;2023-12-20T03:54:37;6.30;99.90
71754;DHT22;59593;51.716;7.016;2023-12-20T03:57:03;6.30;99.90
71754;DHT22;59593;51.716;7.016;2023-12-20T03:59:29;6.40;99.90
71754;DHT22;59593;51.716;7.016;2023-12-20T04:01:54;6.30;99.90
71754;DHT22;59593;51.716;7.016;2023-12-20T04:04:20;6.30;99.90
71754;DHT22;59593;51.716;7.016;2023-12-20T04:06:46;6.30;99.90
71754;DHT22;59593;51.716;7.016;2023-12-20T04:09:12;6.30;99.90
71754;DHT22;59593;51.716;7.016;2023-12-20T04:11:38;6.30;99.90
71754;DHT22;59593;51.716;7.016;2023-12-20T04:14:04;6.30;99.90
71754;DHT22;59593;51.716;7.016;2023-12-20T04:16:32;6.30;99.90
71754;DHT22;59593;51.716;7.016;2023-12-20T04:18:58;6.30;99.90
71754;DHT22;59593;51.716;7.016;2023-12-20T04:21:24;6.30;99.90
71754;DHT22;59593;51.716;7.016;2023-12-20T04:23:50;6.30;99.90
71754;DHT22;59593;51.716;7.016;2023-12-20T04:26:15;6.30;99.90
71754;DHT22;59593;51.716;7.016;2023-12-20T04:28:41;6.30;99.90
71754;DHT22;59593;51.716;7.016;2023-12-20T04:31:07;6.30;99.90
71754;DHT22;59593;51.716;7.016;2023-12-20T04:33:33;6.30;99.90
71754;DHT22;59593;51.716;7.016;2023-12-20T04:35:58;6.30;99.90
71754;DHT22;59593;51.716;7.016;2023-12-20T04:38:25;6.30;99.90
71754;DHT22;59593;51.716;7.016;2023-12-20T04:40:50;6.30;99.90
71754;DHT22;59593;51.716;7.016;2023-12-20T04:43:16;6.30;99.90
71754;DHT22;59593;51.716;7.016;2023-12-20T04:45:42;6.30;99.90
71754;DHT22;59593;51.716;7.016;2023-12-20T04:48:08;6.20;99.90
71754;DHT22;59593;51.716;7.016;2023-12-20T04:50:33;6.20;99.90
71754;DHT22;59593;51.716;7.016;2023-12-20T04:53:00;6.30;99.90
71754;DHT22;59593;51.716;7.016;2023-12-20T04:55:26;6.20;99.90
71754;DHT22;59593;51.716;7.016;2023-12-20T04:57:52;6.20;99.90
71754;DHT22;59593;51.716;7.016;2023-12-20T05:00:17;6.20;99.90
71754;DHT22;59593;51.716;7.016;2023-12-20T05:02:43;6.30;99.90
71754;DHT22;59593;51.716;7.016;2023-12-20T05:05:40;6.30;99.90
71754;DHT22;59593;51.716;7.016;2023-12-20T05:08:06;6.30;99.90
71754;DHT22;59593;51.716;7.016;2023-12-20T05:10:32;6.20;99.90
71754;DHT22;59593;51.716;7.016;2023-12-20T05:12:57;6.20;99.90
71754;DHT22;59593;51.716;7.016;2023-12-20T05:15:23;6.30;99.90
71754;DHT22;59593;51.716;7.016;2023-12-20T05:17:48;6.30;99.90
71754;DHT22;59593;51.716;7.016;2023-12-20T05:20:14;6.20;99.90
71754;DHT22;59593;51.716;7.016;2023-12-20T05:22:41;6.30;99.90
71754;DHT22;59593;51.716;7.016;2023-12-20T05:25:06;6.40;99.90
71754;DHT22;59593;51.716;7.016;2023-12-20T05:27:32;6.30;99.90
71754;DHT22;59593;51.716;7.016;2023-12-20T05:29:58;6.30;99.90
71754;DHT22;59593;51.716;7.016;2023-12-20T05:32:24;6.30;99.90
71754;DHT22;59593;51.716;7.016;2023-12-20T05:34:49;6.30;99.90
71754;DHT22;59593;51.716;7.016;2023-12-20T05:37:15;6.30;99.90
71754;DHT22;59593;51.716;7.016;2023-12-20T05:39:40;6.30;99.90
71754;DHT22;59593;51.716;7.016;2023-12-20T05:42:06;6.40;99.90
71754;DHT22;59593;51.716;7.016;2023-12-20T05:44:32;6.40;99.90
71754;DHT22;59593;51.716;7.016;2023-12-20T05:46:57;6.40;99.90
71754;DHT22;59593;51.716;7.016;2023-12-20T05:49:23;6.40;99.90
71754;DHT22;59593;51.716;7.016;2023-12-20T05:51:48;6.40;99.90
71754;DHT22;59593;51.716;7.016;2023-12-20T05:54:15;6.40;99.90
71754;DHT22;59593;51.716;7.016;2023-12-20T05:56:41;6.40;99.90
71754;DHT22;59593;51.716;7.016;2023-12-20T05:59:06;6.50;99.90
71754;DHT22;59593;51.716;7.016;2023-12-20T06:01:32;6.40;99.90
71754;DHT22;59593;51.716;7.016;2023-12-20T06:03:57;6.40;99.90
71754;DHT22;59593;51.716;7.016;2023-12-20T06:06:23;6.40;99.90
71754;DHT22;59593;51.716;7.016;2023-12-20T06:08:49;6.50;99.90
71754;DHT22;59593;51.716;7.016;2023-12-20T06:11:15;6.50;99.90
71754;DHT22;59593;51.716;7.016;2023-12-20T06:13:40;6.50;99.90
71754;DHT22;59593;51.716;7.016;2023-12-20T06:16:06;6.50;99.90
71754;DHT22;59593;51.716;7.016;2023-12-20T06:18:35;6.50;99.90
71754;DHT22;59593;51.716;7.016;2023-12-20T06:21:02;6.60;99.90
71754;DHT22;59593;51.716;7.016;2023-12-20T06:23:27;6.60;99.90
71754;DHT22;59593;51.716;7.016;2023-12-20T06:25:53;6.60;99.90
71754;DHT22;59593;51.716;7.016;2023-12-20T06:28:19;6.60;99.90
71754;DHT22;59593;51.716;7.016;2023-12-20T06:30:44;6.60;99.90
71754;DHT22;59593;51.716;7.016;2023-12-20T06:33:12;6.60;99.90
71754;DHT22;59593;51.716;7.016;2023-12-20T06:35:38;6.70;99.90
71754;DHT22;59593;51.716;7.016;2023-12-20T06:38:04;6.60;99.90
71754;DHT22;59593;51.716;7.016;2023-12-20T06:40:30;6.70;99.90
71754;DHT22;59593;51.716;7.016;2023-12-20T06:42:55;6.60;99.90
71754;DHT22;59593;51.716;7.016;2023-12-20T06:45:21;6.70;99.90
71754;DHT22;59593;51.716;7.016;2023-12-20T06:47:47;6.70;99.90
71754;DHT22;59593;51.716;7.016;2023-12-20T06:50:12;6.70;99.90
71754;DHT22;59593;51.716;7.016;2023-12-20T06:52:38;6.70;99.90
71754;DHT22;59593;51.716;7.016;2023-12-20T06:55:04;6.70;99.90
71754;DHT22;59593;51.716;7.016;2023-12-20T06:57:29;6.70;99.90
71754;DHT22;59593;51.716;7.016;2023-12-20T06:59:55;6.70;99.90
71754;DHT22;59593;51.716;7.016;2023-12-20T07:02:21;6.70;99.90
71754;DHT22;59593;51.716;7.016;2023-12-20T07:04:47;6.70;99.90
71754;DHT22;59593;51.716;7.016;2023-12-20T07:07:13;6.70;99.90
71754;DHT22;59593;51.716;7.016;2023-12-20T07:09:40;6.70;99.90
71754;DHT22;59593;51.716;7.016;2023-12-20T07:12:09;6.80;99.90
71754;DHT22;59593;51.716;7.016;2023-12-20T07:14:35;6.80;99.90
71754;DHT22;59593;51.716;7.016;2023-12-20T07:17:01;6.80;99.90
71754;DHT22;59593;51.716;7.016;2023-12-20T07:19:26;6.80;99.90
71754;DHT22;59593;51.716;7.016;2023-12-20T07:21:52;6.80;99.90
71754;DHT22;59593;51.716;7.016;2023-12-20T07:24:18;6.80;99.90
71754;DHT22;59593;51.716;7.016;2023-12-20T07:26:44;6.80;99.90
71754;DHT22;59593;51.716;7.016;2023-12-20T07:29:09;6.80;99.90
71754;DHT22;59593;51.716;7.016;2023-12-20T07:31:35;6.80;99.90
71754;DHT22;59593;51.716;7.016;2023-12-20T07:34:01;6.80;99.90
71754;DHT22;59593;51.716;7.016;2023-12-20T07:36:26;6.90;99.90
71754;DHT22;59593;51.716;7.016;2023-12-20T07:38:52;6.90;99.90
71754;DHT22;59593;51.716;7.016;2023-12-20T07:41:17;6.90;99.90
71754;DHT22;59593;51.716;7.016;2023-12-20T07:43:46;6.90;99.90
71754;DHT22;59593;51.716;7.016;2023-12-20T07:46:12;6.90;99.90
71754;DHT22;59593;51.716;7.016;2023-12-20T07:48:38;7.00;99.90
71754;DHT22;59593;51.716;7.016;2023-12-20T07:51:05;7.00;99.90
71754;DHT22;59593;51.716;7.016;2023-12-20T07:53:35;7.00;99.90
71754;DHT22;59593;51.716;7.016;2023-12-20T07:56:15;7.00;99.90
71754;DHT22;59593;51.716;7.016;2023-12-20T07:58:41;7.10;99.90
71754;DHT22;59593;51.716;7.016;2023-12-20T08:01:07;7.10;99.90
71754;DHT22;59593;51.716;7.016;2023-12-20T08:03:32;7.00;99.90
71754;DHT22;59593;51.716;7.016;2023-12-20T08:05:58;7.10;99.90
71754;DHT22;59593;51.716;7.016;2023-12-20T08:08:26;7.00;99.90
71754;DHT22;59593;51.716;7.016;2023-12-20T08:10:51;7.00;99.90
71754;DHT22;59593;51.716;7.016;2023-12-20T08:13:17;7.10;99.90
71754;DHT22;59593;51.716;7.016;2023-12-20T08:15:43;7.10;99.90
71754;DHT22;59593;51.716;7.016;2023-12-20T08:18:09;7.10;99.90
71754;DHT22;59593;51.716;7.016;2023-12-20T08:20:34;7.20;99.90
71754;DHT22;59593;51.716;7.016;2023-12-20T08:23:00;7.20;99.90
71754;DHT22;59593;51.716;7.016;2023-12-20T08:25:26;7.20;99.90
71754;DHT22;59593;51.716;7.016;2023-12-20T08:27:52;7.20;99.90
71754;DHT22;59593;51.716;7.016;2023-12-20T08:30:19;7.20;99.90
71754;DHT22;59593;51.716;7.016;2023-12-20T08:32:48;7.20;99.90
71754;DHT22;59593;51.716;7.016;2023-12-20T08:35:13;7.20;99.90
71754;DHT22;59593;51.716;7.016;2023-12-20T08:37:41;7.20;99.90
71754;DHT22;59593;51.716;7.016;2023-12-20T08:40:07;7.20;99.90
71754;DHT22;59593;51.716;7.016;2023-12-20T08:42:34;7.20;99.90
71754;DHT22;59593;51.716;7.016;2023-12-20T08:45:02;7.20;99.90
71754;DHT22;59593;51.716;7.016;2023-12-20T08:47:29;7.30;99.90
71754;DHT22;59593;51.716;7.016;2023-12-20T08:49:55;7.30;99.90
71754;DHT22;59593;51.716;7.016;2023-12-20T08:52:22;7.30;99.90
71754;DHT22;59593;51.716;7.016;2023-12-20T08:54:49;7.30;99.90
71754;DHT22;59593;51.716;7.016;2023-12-20T08:57:20;7.30;99.90
71754;DHT22;59593;51.716;7.016;2023-12-20T08:59:47;7.30;99.90
71754;DHT22;59593;51.716;7.016;2023-12-20T09:02:13;7.30;99.90
71754;DHT22;59593;51.716;7.016;2023-12-20T09:04:39;7.30;99.90
71754;DHT22;59593;51.716;7.016;2023-12-20T09:07:05;7.30;99.90
71754;DHT22;59593;51.716;7.016;2023-12-20T09:09:30;7.30;99.90
71754;DHT22;59593;51.716;7.016;2023-12-20T09:11:57;7.40;99.90
71754;DHT22;59593;51.716;7.016;2023-12-20T09:14:26;7.30;99.90
71754;DHT22;59593;51.716;7.016;2023-12-20T09:16:51;7.30;99.90
71754;DHT22;59593;51.716;7.016;2023-12-20T09:19:17;7.40;99.90
71754;DHT22;59593;51.716;7.016;2023-12-20T09:21:43;7.40;99.90
71754;DHT22;59593;51.716;7.016;2023-12-20T09:24:09;7.30;99.90
71754;DHT22;59593;51.716;7.016;2023-12-20T09:26:34;7.30;99.90
71754;DHT22;59593;51.716;7.016;2023-12-20T09:29:00;7.40;99.90
71754;DHT22;59593;51.716;7.016;2023-12-20T09:31:25;7.40;99.90
71754;DHT22;59593;51.716;7.016;2023-12-20T09:33:51;7.30;99.90
71754;DHT22;59593;51.716;7.016;2023-12-20T09:36:17;7.40;99.90
71754;DHT22;59593;51.716;7.016;2023-12-20T09:38:42;7.40;99.90
71754;DHT22;59593;51.716;7.016;2023-12-20T09:41:08;7.40;99.90
71754;DHT22;59593;51.716;7.016;2023-12-20T09:43:37;7.40;99.90
71754;DHT22;59593;51.716;7.016;2023-12-20T09:46:05;7.40;99.90
71754;DHT22;59593;51.716;7.016;2023-12-20T09:48:33;7.40;99.90
71754;DHT22;59593;51.716;7.016;2023-12-20T09:50:59;7.40;99.90
71754;DHT22;59593;51.716;7.016;2023-12-20T09:53:25;7.40;99.90
71754;DHT22;59593;51.716;7.016;2023-12-20T09:55:58;7.30;99.90
71754;DHT22;59593;51.716;7.016;2023-12-20T09:58:25;7.40;99.90
71754;DHT22;59593;51.716;7.016;2023-12-20T10:00:51;7.40;99.90
71754;DHT22;59593;51.716;7.016;2023-12-20T10:03:21;7.40;99.90
71754;DHT22;59593;51.716;7.016;2023-12-20T10:05:49;7.30;99.90
71754;DHT22;59593;51.716;7.016;2023-12-20T10:08:17;7.30;99.90
71754;DHT22;59593;51.716;7.016;2023-12-20T10:10:46;7.20;99.90
71754;DHT22;59593;51.716;7.016;2023-12-20T10:13:13;7.20;99.90
71754;DHT22;59593;51.716;7.016;2023-12-20T10:15:39;7.20;99.90
71754;DHT22;59593;51.716;7.016;2023-12-20T10:18:06;7.20;99.90
71754;DHT22;59593;51.716;7.016;2023-12-20T10:20:32;7.20;99.90
71754;DHT22;59593;51.716;7.016;2023-12-20T10:22:59;7.30;99.90
71754;DHT22;59593;51.716;7.016;2023-12-20T10:25:25;7.20;99.90
71754;DHT22;59593;51.716;7.016;2023-12-20T10:28:11;7.30;99.90
71754;DHT22;59593;51.716;7.016;2023-12-20T10:30:37;7.30;99.90
71754;DHT22;59593;51.716;7.016;2023-12-20T10:33:05;7.30;99.90
71754;DHT22;59593;51.716;7.016;2023-12-20T10:35:32;7.30;99.90
71754;DHT22;59593;51.716;7.016;2023-12-20T10:37:59;7.30;99.90
71754;DHT22;59593;51.716;7.016;2023-12-20T10:40:29;7.30;99.90
71754;DHT22;59593;51.716;7.016;2023-12-20T10:42:56;7.30;99.90
71754;DHT22;59593;51.716;7.016;2023-12-20T10:45:23;7.30;99.90
71754;DHT22;59593;51.716;7.016;2023-12-20T10:47:50;7.30;99.90
71754;DHT22;59593;51.716;7.016;2023-12-20T10:50:17;7.30;99.90
71754;DHT22;59593;51.716;7.016;2023-12-20T10:52:44;7.30;99.90
71754;DHT22;59593;51.716;7.016;2023-12-20T10:55:11;7.30;99.90
71754;DHT22;59593;51.716;7.016;2023-12-20T10:57:36;7.30;99.90
71754;DHT22;59593;51.716;7.016;2023-12-20T11:00:02;7.30;99.90
71754;DHT22;59593;51.716;7.016;2023-12-20T11:02:32;7.40;99.90
71754;DHT22;59593;51.716;7.016;2023-12-20T11:07:47;7.50;99.90
71754;DHT22;59593;51.716;7.016;2023-12-20T11:10:20;7.50;99.90
71754;DHT22;59593;51.716;7.016;2023-12-20T11:12:57;7.50;99.90
71754;DHT22;59593;51.716;7.016;2023-12-20T11:15:24;7.50;99.90
71754;DHT22;59593;51.716;7.016;2023-12-20T11:17:57;7.40;99.90
71754;DHT22;59593;51.716;7.016;2023-12-20T11:20:24;7.50;99.90
71754;DHT22;59593;51.716;7.016;2023-12-20T11:23:00;7.50;99.90
71754;DHT22;59593;51.716;7.016;2023-12-20T11:25:26;7.50;99.90
71754;DHT22;59593;51.716;7.016;2023-12-20T11:33:08;7.50;99.90
71754;DHT22;59593;51.716;7.016;2023-12-20T11:35:34;7.40;99.90
71754;DHT22;59593;51.716;7.016;2023-12-20T11:38:00;7.40;99.90
71754;DHT22;59593;51.716;7.016;2023-12-20T11:40:26;7.40;99.90
71754;DHT22;59593;51.716;7.016;2023-12-20T11:42:52;7.50;99.90
71754;DHT22;59593;51.716;7.016;2023-12-20T11:45:24;7.50;99.90
71754;DHT22;59593;51.716;7.016;2023-12-20T11:47:50;7.50;99.90
71754;DHT22;59593;51.716;7.016;2023-12-20T11:50:17;7.50;99.90
71754;DHT22;59593;51.716;7.016;2023-12-20T11:52:44;7.50;99.90
71754;DHT22;59593;51.716;7.016;2023-12-20T11:55:09;7.50;99.90
71754;DHT22;59593;51.716;7.016;2023-12-20T11:57:36;7.50;99.90
71754;DHT22;59593;51.716;7.016;2023-12-20T12:00:03;7.50;99.90
71754;DHT22;59593;51.716;7.016;2023-12-20T12:02:29;7.50;99.90
71754;DHT22;59593;51.716;7.016;2023-12-20T12:04:55;7.50;99.90
71754;DHT22;59593;51.716;7.016;2023-12-20T12:07:22;7.60;99.90
71754;DHT22;59593;51.716;7.016;2023-12-20T12:09:47;7.70;99.90
71754;DHT22;59593;51.716;7.016;2023-12-20T12:12:13;7.90;99.90
71754;DHT22;59593;51.716;7.016;2023-12-20T12:14:39;7.90;99.90
71754;DHT22;59593;51.716;7.016;2023-12-20T12:17:11;7.90;99.90
71754;DHT22;59593;51.716;7.016;2023-12-20T12:19:38;8.10;99.90
71754;DHT22;59593;51.716;7.016;2023-12-20T12:22:14;8.10;99.90
71754;DHT22;59593;51.716;7.016;2023-12-20T12:24:42;8.10;99.90
71754;DHT22;59593;51.716;7.016;2023-12-20T12:27:08;7.90;99.90
71754;DHT22;59593;51.716;7.016;2023-12-20T12:29:35;7.90;99.90
71754;DHT22;59593;51.716;7.016;2023-12-20T12:32:04;7.80;99.90
71754;DHT22;59593;51.716;7.016;2023-12-20T12:34:30;8.00;99.90
71754;DHT22;59593;51.716;7.016;2023-12-20T12:36:57;7.90;99.90
71754;DHT22;59593;51.716;7.016;2023-12-20T12:39:23;7.90;99.90
71754;DHT22;59593;51.716;7.016;2023-12-20T12:41:53;8.00;99.90
71754;DHT22;59593;51.716;7.016;2023-12-20T12:44:19;8.10;99.90
71754;DHT22;59593;51.716;7.016;2023-12-20T12:46:46;8.00;99.90
71754;DHT22;59593;51.716;7.016;2023-12-20T12:49:12;7.90;99.90
71754;DHT22;59593;51.716;7.016;2023-12-20T12:51:38;7.90;99.90
71754;DHT22;59593;51.716;7.016;2023-12-20T12:54:04;8.00;99.90
71754;DHT22;59593;51.716;7.016;2023-12-20T12:56:30;8.00;99.90
71754;DHT22;59593;51.716;7.016;2023-12-20T12:58:56;8.00;99.90
71754;DHT22;59593;51.716;7.016;2023-12-20T13:01:21;8.00;99.90
71754;DHT22;59593;51.716;7.016;2023-12-20T13:03:47;8.10;99.90
71754;DHT22;59593;51.716;7.016;2023-12-20T13:06:13;8.10;99.90
71754;DHT22;59593;51.716;7.016;2023-12-20T13:08:38;8.10;99.90
71754;DHT22;59593;51.716;7.016;2023-12-20T13:11:04;8.20;99.90
71754;DHT22;59593;51.716;7.016;2023-12-20T13:13:30;8.20;99.90
71754;DHT22;59593;51.716;7.016;2023-12-20T13:15:56;8.10;99.90
71754;DHT22;59593;51.716;7.016;2023-12-20T13:18:25;8.10;99.90
71754;DHT22;59593;51.716;7.016;2023-12-20T13:20:51;8.10;99.90
71754;DHT22;59593;51.716;7.016;2023-12-20T13:23:16;8.20;99.90
71754;DHT22;59593;51.716;7.016;2023-12-20T13:25:43;8.20;99.90
71754;DHT22;59593;51.716;7.016;2023-12-20T13:28:11;8.20;99.90
71754;DHT22;59593;51.716;7.016;2023-12-20T13:30:36;8.10;99.90
71754;DHT22;59593;51.716;7.016;2023-12-20T13:33:02;8.10;99.90
71754;DHT22;59593;51.716;7.016;2023-12-20T13:35:28;8.10;99.90
71754;DHT22;59593;51.716;7.016;2023-12-20T13:37:53;8.00;99.90
71754;DHT22;59593;51.716;7.016;2023-12-20T13:40:19;8.00;99.90
71754;DHT22;59593;51.716;7.016;2023-12-20T13:42:45;8.10;99.90
71754;DHT22;59593;51.716;7.016;2023-12-20T13:45:11;8.10;99.90
71754;DHT22;59593;51.716;7.016;2023-12-20T13:47:36;8.10;99.90
71754;DHT22;59593;51.716;7.016;2023-12-20T13:50:03;8.10;99.90
71754;DHT22;59593;51.716;7.016;2023-12-20T13:52:29;8.10;99.90
71754;DHT22;59593;51.716;7.016;2023-12-20T13:54:55;8.10;99.90
71754;DHT22;59593;51.716;7.016;2023-12-20T13:57:20;8.00;99.90
71754;DHT22;59593;51.716;7.016;2023-12-20T13:59:46;8.10;99.90
71754;DHT22;59593;51.716;7.016;2023-12-20T14:02:12;8.10;99.90
71754;DHT22;59593;51.716;7.016;2023-12-20T14:04:37;8.10;99.90
71754;DHT22;59593;51.716;7.016;2023-12-20T14:07:05;8.00;99.90
71754;DHT22;59593;51.716;7.016;2023-12-20T14:09:30;8.00;99.90
71754;DHT22;59593;51.716;7.016;2023-12-20T14:11:56;8.00;99.90
71754;DHT22;59593;51.716;7.016;2023-12-20T14:14:21;8.00;99.90
71754;DHT22;59593;51.716;7.016;2023-12-20T14:16:47;7.90;99.90
71754;DHT22;59593;51.716;7.016;2023-12-20T14:19:13;7.90;99.90
71754;DHT22;59593;51.716;7.016;2023-12-20T14:21:38;7.90;99.90
71754;DHT22;59593;51.716;7.016;2023-12-20T14:24:04;7.80;99.90
71754;DHT22;59593;51.716;7.016;2023-12-20T14:26:30;7.80;99.90
71754;DHT22;59593;51.716;7.016;2023-12-20T14:28:57;7.90;99.90
71754;DHT22;59593;51.716;7.016;2023-12-20T14:31:22;8.00;99.90
71754;DHT22;59593;51.716;7.016;2023-12-20T14:33:50;7.90;99.90
71754;DHT22;59593;51.716;7.016;2023-12-20T14:36:19;7.90;99.90
71754;DHT22;59593;51.716;7.016;2023-12-20T14:38:45;7.90;99.90
71754;DHT22;59593;51.716;7.016;2023-12-20T14:41:12;7.90;99.90
71754;DHT22;59593;51.716;7.016;2023-12-20T14:43:37;7.90;99.90
71754;DHT22;59593;51.716;7.016;2023-12-20T14:46:03;7.80;99.90
71754;DHT22;59593;51.716;7.016;2023-12-20T14:48:30;7.80;99.90
71754;DHT22;59593;51.716;7.016;2023-12-20T14:50:57;7.80;99.90
71754;DHT22;59593;51.716;7.016;2023-12-20T14:53:24;7.90;99.90
71754;DHT22;59593;51.716;7.016;2023-12-20T14:55:50;7.90;99.90
71754;DHT22;59593;51.716;7.016;2023-12-20T14:58:17;7.90;99.90
71754;DHT22;59593;51.716;7.016;2023-12-20T15:00:42;7.80;99.90
71754;DHT22;59593;51.716;7.016;2023-12-20T15:03:09;7.90;99.90
71754;DHT22;59593;51.716;7.016;2023-12-20T15:05:34;7.80;99.90
71754;DHT22;59593;51.716;7.016;2023-12-20T15:08:01;7.90;99.90
71754;DHT22;59593;51.716;7.016;2023-12-20T15:10:27;7.90;99.90
71754;DHT22;59593;51.716;7.016;2023-12-20T15:12:54;7.90;99.90
71754;DHT22;59593;51.716;7.016;2023-12-20T15:15:22;7.80;99.90
71754;DHT22;59593;51.716;7.016;2023-12-20T15:17:47;7.80;99.90
71754;DHT22;59593;51.716;7.016;2023-12-20T15:20:13;7.80;99.90
71754;DHT22;59593;51.716;7.016;2023-12-20T15:22:39;7.80;99.90
71754;DHT22;59593;51.716;7.016;2023-12-20T15:25:07;7.80;99.90
71754;DHT22;59593;51.716;7.016;2023-12-20T15:27:35;7.80;99.90
71754;DHT22;59593;51.716;7.016;2023-12-20T15:30:03;7.90;99.90
71754;DHT22;59593;51.716;7.016;2023-12-20T15:32:28;7.90;99.90
71754;DHT22;59593;51.716;7.016;2023-12-20T15:34:54;7.70;99.90
71754;DHT22;59593;51.716;7.016;2023-12-20T15:37:20;7.80;99.90
71754;DHT22;59593;51.716;7.016;2023-12-20T15:39:47;7.90;99.90
71754;DHT22;59593;51.716;7.016;2023-12-20T15:42:13;7.90;99.90
71754;DHT22;59593;51.716;7.016;2023-12-20T15:44:38;7.90;99.90
71754;DHT22;59593;51.716;7.016;2023-12-20T15:47:04;7.80;99.90